Map

Track Data

SID SEASON NUMBER BASIN SUBBASIN NAME ISO_TIME NATURE LAT LON WMO_WIND WMO_PRES WMO_AGENCY TRACK_TYPE DIST2LAND LANDFALL IFLAG USA_AGENCY USA_ATCF_ID USA_LAT USA_LON USA_RECORD USA_STATUS USA_WIND USA_PRES USA_SSHS USA_R34_NE USA_R34_SE USA_R34_SW USA_R34_NW USA_R50_NE USA_R50_SE USA_R50_SW USA_R50_NW USA_R64_NE USA_R64_SE USA_R64_SW USA_R64_NW USA_POCI USA_ROCI USA_RMW USA_EYE TOKYO_LAT TOKYO_LON TOKYO_GRADE TOKYO_WIND TOKYO_PRES TOKYO_R50_DIR TOKYO_R50_LONG TOKYO_R50_SHORT TOKYO_R30_DIR TOKYO_R30_LONG TOKYO_R30_SHORT TOKYO_LAND CMA_LAT CMA_LON CMA_CAT CMA_WIND CMA_PRES HKO_LAT HKO_LON HKO_CAT HKO_WIND HKO_PRES NEWDELHI_LAT NEWDELHI_LON NEWDELHI_GRADE NEWDELHI_WIND NEWDELHI_PRES NEWDELHI_CI NEWDELHI_DP NEWDELHI_POCI REUNION_LAT REUNION_LON REUNION_TYPE REUNION_WIND REUNION_PRES REUNION_TNUM REUNION_CI REUNION_RMW REUNION_R34_NE REUNION_R34_SE REUNION_R34_SW REUNION_R34_NW REUNION_R50_NE REUNION_R50_SE REUNION_R50_SW REUNION_R50_NW REUNION_R64_NE REUNION_R64_SE REUNION_R64_SW REUNION_R64_NW BOM_LAT BOM_LON BOM_TYPE BOM_WIND BOM_PRES BOM_TNUM BOM_CI BOM_RMW BOM_R34_NE BOM_R34_SE BOM_R34_SW BOM_R34_NW BOM_R50_NE BOM_R50_SE BOM_R50_SW BOM_R50_NW BOM_R64_NE BOM_R64_SE BOM_R64_SW BOM_R64_NW BOM_ROCI BOM_POCI BOM_EYE BOM_POS_METHOD BOM_PRES_METHOD NADI_LAT NADI_LON NADI_CAT NADI_WIND NADI_PRES WELLINGTON_LAT WELLINGTON_LON WELLINGTON_WIND WELLINGTON_PRES DS824_LAT DS824_LON DS824_STAGE DS824_WIND DS824_PRES TD9636_LAT TD9636_LON TD9636_STAGE TD9636_WIND TD9636_PRES TD9635_LAT TD9635_LON TD9635_WIND TD9635_PRES TD9635_ROCI NEUMANN_LAT NEUMANN_LON NEUMANN_CLASS NEUMANN_WIND NEUMANN_PRES MLC_LAT MLC_LON MLC_CLASS MLC_WIND MLC_PRES USA_GUST BOM_GUST BOM_GUST_PER REUNION_GUST REUNION_GUST_PER USA_SEAHGT USA_SEARAD_NE USA_SEARAD_SE USA_SEARAD_SW USA_SEARAD_NW STORM_SPEED STORM_DIR
1967251N29283 1967 93 NA NA DORIA 1967-09-08 00:00:00 TS 28.5000 -77.5000 25 1010 hurdat_atl main 292 264 O_____________ hurdat_atl AL141967 28.5000 -77.5000 TD 25 1010 -1 8 226
1967251N29283 1967 93 NA NA DORIA 1967-09-08 03:00:00 TS 28.2376 -77.8053 main 261 225 P_____________ AL141967 28.2376 -77.8053 TD 25 1009 -1 7 227
1967251N29283 1967 93 NA NA DORIA 1967-09-08 06:00:00 TS 28.0000 -78.1000 25 hurdat_atl main 225 189 I_____________ hurdat_atl AL141967 28.0000 -78.1000 TD 25 1008 -1 7 230
1967251N29283 1967 93 NA NA DORIA 1967-09-08 09:00:00 TS 27.8125 -78.3724 main 189 167 P_____________ AL141967 27.8125 -78.3724 TD 25 1007 -1 5 236
1967251N29283 1967 93 NA NA DORIA 1967-09-08 12:00:00 TS 27.7000 -78.6000 25 1007 hurdat_atl main 167 148 O_____________ hurdat_atl AL141967 27.7000 -78.6000 TD 25 1007 -1 4 249
1967251N29283 1967 93 NA NA DORIA 1967-09-08 15:00:00 TS 27.6774 -78.7724 main 148 139 P_____________ AL141967 27.6774 -78.7724 TD 25 -1 3 270
1967251N29283 1967 93 NA NA DORIA 1967-09-08 18:00:00 TS 27.7000 -78.9000 25 hurdat_atl main 139 130 O_____________ hurdat_atl AL141967 27.7000 -78.9000 TD 25 -1 2 274
1967251N29283 1967 93 NA NA DORIA 1967-09-08 21:00:00 TS 27.6925 -79.0150 main 130 121 P_____________ AL141967 27.6925 -79.0150 TD 27 -1 2 270
1967251N29283 1967 93 NA NA DORIA 1967-09-09 00:00:00 TS 27.7000 -79.1000 30 hurdat_atl main 121 113 O_____________ hurdat_atl AL141967 27.7000 -79.1000 TD 30 -1 1 290
1967251N29283 1967 93 NA NA DORIA 1967-09-09 03:00:00 TS 27.7425 -79.1725 main 113 113 P_____________ AL141967 27.7425 -79.1725 TD 32 -1 1 320
1967251N29283 1967 93 NA NA DORIA 1967-09-09 06:00:00 TS 27.8000 -79.2000 35 hurdat_atl main 117 117 O_____________ hurdat_atl AL141967 27.8000 -79.2000 TS 35 0 1 0
1967251N29283 1967 93 NA NA DORIA 1967-09-09 09:00:00 TS 27.8349 -79.1874 main 117 117 P_____________ AL141967 27.8349 -79.1874 TS 35 0 1 40
1967251N29283 1967 93 NA NA DORIA 1967-09-09 12:00:00 TS 27.9000 -79.1000 35 1004 hurdat_atl main 130 130 O_____________ hurdat_atl AL141967 27.9000 -79.1000 TS 35 1004 0 3 54
1967251N29283 1967 93 NA NA DORIA 1967-09-09 15:00:00 TS 27.9899 -78.9446 main 153 153 P_____________ AL141967 27.9899 -78.9446 TS 35 1002 0 5 50
1967251N29283 1967 93 NA NA DORIA 1967-09-09 18:00:00 TS 28.2000 -78.7000 35 hurdat_atl main 179 179 I_____________ hurdat_atl AL141967 28.2000 -78.7000 TS 35 1000 0 8 40
1967251N29283 1967 93 NA NA DORIA 1967-09-09 21:00:00 TS 28.5674 -78.3944 main 205 205 P_____________ AL141967 28.5674 -78.3944 TS 37 998 0 11 34
1967251N29283 1967 93 NA NA DORIA 1967-09-10 00:00:00 TS 29.1000 -78.0000 40 997 hurdat_atl main 252 252 O_____________ hurdat_atl AL141967 29.1000 -78.0000 TS 40 997 0 14 33
1967251N29283 1967 93 NA NA DORIA 1967-09-10 03:00:00 TS 29.7701 -77.5154 main 325 325 P_____________ AL141967 29.7701 -77.5154 TS 52 0 17 32
1967251N29283 1967 93 NA NA DORIA 1967-09-10 06:00:00 TS 30.5000 -77.0000 65 hurdat_atl main 359 338 O_____________ hurdat_atl AL141967 30.5000 -77.0000 HU 65 1 16 31
1967251N29283 1967 93 NA NA DORIA 1967-09-10 09:00:00 TS 31.1497 -76.5489 main 342 293 P_____________ AL141967 31.1497 -76.5489 HU 65 1 15 31
1967251N29283 1967 93 NA NA DORIA 1967-09-10 12:00:00 TS 31.8000 -76.1000 65 hurdat_atl main 293 256 O_____________ hurdat_atl AL141967 31.8000 -76.1000 HU 65 1 16 29
1967251N29283 1967 93 NA NA DORIA 1967-09-10 15:00:00 TS 32.5219 -75.6443 main 259 211 P_____________ AL141967 32.5219 -75.6443 HU 65 1 16 31
1967251N29283 1967 93 NA NA DORIA 1967-09-10 18:00:00 TS 33.2000 -75.1000 65 984 hurdat_atl main 211 205 O_____________ hurdat_atl AL141967 33.2000 -75.1000 HU 65 984 1 16 41
1967251N29283 1967 93 NA NA DORIA 1967-09-10 21:00:00 TS 33.7376 -74.3869 main 219 219 P_____________ AL141967 33.7376 -74.3869 HU 65 1 16 51
1967251N29283 1967 93 NA NA DORIA 1967-09-11 00:00:00 TS 34.2000 -73.6000 65 hurdat_atl main 246 246 O_____________ hurdat_atl AL141967 34.2000 -73.6000 HU 65 1 16 54
1967251N29283 1967 93 NA NA DORIA 1967-09-11 03:00:00 TS 34.6645 -72.8492 main 273 273 P_____________ AL141967 34.6645 -72.8492 HU 62 0 15 54
1967251N29283 1967 93 NA NA DORIA 1967-09-11 06:00:00 TS 35.1000 -72.1000 60 hurdat_atl main 317 317 O_____________ hurdat_atl AL141967 35.1000 -72.1000 TS 60 0 15 54
1967251N29283 1967 93 NA NA DORIA 1967-09-11 09:00:00 TS 35.5447 -71.3427 main 380 379 P_____________ AL141967 35.5447 -71.3427 TS 60 0 15 57
1967251N29283 1967 93 NA NA DORIA 1967-09-11 12:00:00 TS 35.9000 -70.6000 60 999 hurdat_atl main 440 440 O_____________ hurdat_atl AL141967 35.9000 -70.6000 TS 60 999 0 13 65
1967251N29283 1967 93 NA NA DORIA 1967-09-11 15:00:00 TS 36.1019 -69.8916 main 503 503 P_____________ AL141967 36.1019 -69.8916 TS 55 998 0 12 75
1967251N29283 1967 93 NA NA DORIA 1967-09-11 18:00:00 TS 36.2000 -69.2000 50 998 hurdat_atl main 567 567 O_____________ hurdat_atl AL141967 36.2000 -69.2000 TS 50 998 0 11 82
1967251N29283 1967 93 NA NA DORIA 1967-09-11 21:00:00 TS 36.2573 -68.4844 main 609 609 P_____________ AL141967 36.2573 -68.4844 TS 57 0 11 85
1967251N29283 1967 93 NA NA DORIA 1967-09-12 00:00:00 TS 36.3000 -67.8000 65 hurdat_atl main 630 630 O_____________ hurdat_atl AL141967 36.3000 -67.8000 HU 65 1 11 82
1967251N29283 1967 93 NA NA DORIA 1967-09-12 03:00:00 TS 36.3998 -67.1627 main 637 637 P_____________ AL141967 36.3998 -67.1627 HU 65 1 10 78
1967251N29283 1967 93 NA NA DORIA 1967-09-12 06:00:00 TS 36.5000 -66.6000 65 hurdat_atl main 648 648 O_____________ hurdat_atl AL141967 36.5000 -66.6000 HU 65 1 9 79
1967251N29283 1967 93 NA NA DORIA 1967-09-12 09:00:00 TS 36.5571 -66.1198 main 659 659 P_____________ AL141967 36.5571 -66.1198 HU 67 1 7 82
1967251N29283 1967 93 NA NA DORIA 1967-09-12 12:00:00 TS 36.6000 -65.7000 70 hurdat_atl main 677 677 O_____________ hurdat_atl AL141967 36.6000 -65.7000 HU 70 1 7 82
1967251N29283 1967 93 NA NA DORIA 1967-09-12 15:00:00 TS 36.6501 -65.2475 main 692 692 P_____________ AL141967 36.6501 -65.2475 HU 70 1 6 81
1967251N29283 1967 93 NA NA DORIA 1967-09-12 18:00:00 TS 36.7000 -64.9000 70 hurdat_atl main 708 708 O_____________ hurdat_atl AL141967 36.7000 -64.9000 HU 70 1 4 76
1967251N29283 1967 93 NA NA DORIA 1967-09-12 21:00:00 TS 36.7498 -64.7549 main 713 704 P_____________ AL141967 36.7498 -64.7549 HU 70 1 2 57
1967251N29283 1967 93 NA NA DORIA 1967-09-13 00:00:00 TS 36.8000 -64.7000 70 989 hurdat_atl main 710 710 O_____________ hurdat_atl AL141967 36.8000 -64.7000 HU 70 989 1 2 55
1967251N29283 1967 93 NA NA DORIA 1967-09-13 03:00:00 TS 36.8500 -64.5700 main 706 706 P_____________ AL141967 36.8500 -64.5700 HU 70 1 2 57
1967251N29283 1967 93 NA NA DORIA 1967-09-13 06:00:00 TS 36.9000 -64.5000 70 hurdat_atl main 712 706 O_____________ hurdat_atl AL141967 36.9000 -64.5000 HU 70 1 1 0
1967251N29283 1967 93 NA NA DORIA 1967-09-13 09:00:00 TS 36.9500 -64.5700 main 698 692 P_____________ AL141967 36.9500 -64.5700 HU 70 1 2 303
1967251N29283 1967 93 NA NA DORIA 1967-09-13 12:00:00 TS 37.0000 -64.7000 70 hurdat_atl main 692 687 O_____________ hurdat_atl AL141967 37.0000 -64.7000 HU 70 1 2 298
1967251N29283 1967 93 NA NA DORIA 1967-09-13 15:00:00 TS 37.0424 -64.7851 main 687 672 P_____________ AL141967 37.0424 -64.7851 HU 72 1 2 303
1967251N29283 1967 93 NA NA DORIA 1967-09-13 18:00:00 TS 37.1000 -64.9000 75 983 hurdat_atl main 672 653 O_____________ hurdat_atl AL141967 37.1000 -64.9000 HU 75 983 1 3 302
1967251N29283 1967 93 NA NA DORIA 1967-09-13 21:00:00 TS 37.1926 -65.0924 main 653 633 P_____________ AL141967 37.1926 -65.0924 HU 75 1 4 302
1967251N29283 1967 93 NA NA DORIA 1967-09-14 00:00:00 TS 37.3000 -65.3000 75 hurdat_atl main 633 619 O_____________ hurdat_atl AL141967 37.3000 -65.3000 HU 75 1 4 306
1967251N29283 1967 93 NA NA DORIA 1967-09-14 03:00:00 TS 37.3999 -65.4501 main 613 599 P_____________ AL141967 37.3999 -65.4501 HU 75 1 3 310
1967251N29283 1967 93 NA NA DORIA 1967-09-14 06:00:00 TS 37.5000 -65.6000 75 hurdat_atl main 599 580 O_____________ hurdat_atl AL141967 37.5000 -65.6000 HU 75 1 3 306
1967251N29283 1967 93 NA NA DORIA 1967-09-14 09:00:00 TS 37.5925 -65.7851 main 580 560 P_____________ AL141967 37.5925 -65.7851 HU 75 1 4 302
1967251N29283 1967 93 NA NA DORIA 1967-09-14 12:00:00 TS 37.7000 -66.0000 75 hurdat_atl main 560 532 O_____________ hurdat_atl AL141967 37.7000 -66.0000 HU 75 1 4 307
1967251N29283 1967 93 NA NA DORIA 1967-09-14 15:00:00 TS 37.8649 -66.2348 main 532 508 P_____________ AL141967 37.8649 -66.2348 HU 72 1 5 307
1967251N29283 1967 93 NA NA DORIA 1967-09-14 18:00:00 TS 38.0000 -66.5000 70 973 hurdat_atl main 508 493 O_____________ hurdat_atl AL141967 38.0000 -66.5000 HU 70 973 1 5 290
1967251N29283 1967 93 NA NA DORIA 1967-09-14 21:00:00 TS 38.0224 -66.7852 main 493 480 P_____________ AL141967 38.0224 -66.7852 HU 67 976 1 5 270
1967251N29283 1967 93 NA NA DORIA 1967-09-15 00:00:00 TS 38.0000 -67.1000 65 980 hurdat_atl main 480 467 O_____________ hurdat_atl AL141967 38.0000 -67.1000 HU 65 980 1 5 267
1967251N29283 1967 93 NA NA DORIA 1967-09-15 03:00:00 TS 37.9996 -67.4125 main 467 452 P_____________ AL141967 37.9996 -67.4125 HU 65 1 6 270
1967251N29283 1967 93 NA NA DORIA 1967-09-15 06:00:00 TS 38.0000 -67.8000 65 hurdat_atl main 452 436 O_____________ hurdat_atl AL141967 38.0000 -67.8000 HU 65 1 7 271
1967251N29283 1967 93 NA NA DORIA 1967-09-15 09:00:00 TS 38.0070 -68.2823 main 436 418 P_____________ AL141967 38.0070 -68.2823 HU 67 1 9 270
1967251N29283 1967 93 NA NA DORIA 1967-09-15 12:00:00 TS 38.0000 -68.9000 70 hurdat_atl main 418 400 O_____________ hurdat_atl AL141967 38.0000 -68.9000 HU 70 1 11 267
1967251N29283 1967 93 NA NA DORIA 1967-09-15 15:00:00 TS 37.9504 -69.6779 main 398 369 P_____________ AL141967 37.9504 -69.6779 HU 70 1 13 265
1967251N29283 1967 93 NA NA DORIA 1967-09-15 18:00:00 TS 37.9000 -70.5000 70 975 hurdat_atl main 369 321 O_____________ hurdat_atl AL141967 37.9000 -70.5000 HU 70 975 1 12 268
1967251N29283 1967 93 NA NA DORIA 1967-09-15 21:00:00 TS 37.8993 -71.2145 main 321 273 P_____________ AL141967 37.8993 -71.2145 HU 70 978 1 11 270
1967251N29283 1967 93 NA NA DORIA 1967-09-16 00:00:00 TS 37.9000 -71.9000 70 981 hurdat_atl main 273 222 O_____________ hurdat_atl AL141967 37.9000 -71.9000 HU 70 981 1 11 268
1967251N29283 1967 93 NA NA DORIA 1967-09-16 03:00:00 TS 37.8573 -72.6151 main 222 166 P_____________ AL141967 37.8573 -72.6151 HU 70 983 1 11 265
1967251N29283 1967 93 NA NA DORIA 1967-09-16 06:00:00 TS 37.8000 -73.3000 70 986 hurdat_atl main 166 118 O_____________ hurdat_atl AL141967 37.8000 -73.3000 HU 70 986 1 11 265
1967251N29283 1967 93 NA NA DORIA 1967-09-16 09:00:00 TS 37.7724 -73.9445 main 118 82 P_____________ AL141967 37.7724 -73.9445 HU 65 987 1 10 264
1967251N29283 1967 93 NA NA DORIA 1967-09-16 12:00:00 TS 37.7000 -74.5000 60 hurdat_atl main 82 57 I_____________ hurdat_atl AL141967 37.7000 -74.5000 TS 60 988 0 8 254
1967251N29283 1967 93 NA NA DORIA 1967-09-16 15:00:00 TS 37.5521 -74.9448 main 57 41 P_____________ AL141967 37.5521 -74.9448 TS 57 989 0 7 238
1967251N29283 1967 93 NA NA DORIA 1967-09-16 18:00:00 TS 37.3000 -75.3000 55 990 hurdat_atl main 41 28 O_____________ hurdat_atl AL141967 37.3000 -75.3000 TS 55 990 0 8 222
1967251N29283 1967 93 NA NA DORIA 1967-09-16 21:00:00 TS 36.9374 -75.6377 main 34 0 P_____________ AL141967 36.9374 -75.6377 TS 50 0 9 211
1967251N29283 1967 93 NA NA DORIA 1967-09-17 00:00:00 TS 36.5000 -75.9000 45 hurdat_atl main 0 0 O_____________ hurdat_atl AL141967 36.5000 -75.9000 TS 45 0 10 202
1967251N29283 1967 93 NA NA DORIA 1967-09-17 03:00:00 TS 36.0574 -76.0873 main 0 0 P_____________ AL141967 36.0574 -76.0873 TS 40 0 9 195
1967251N29283 1967 93 NA NA DORIA 1967-09-17 06:00:00 TS 35.6000 -76.2000 35 hurdat_atl main 0 0 O_____________ hurdat_atl AL141967 35.6000 -76.2000 TS 35 0 9 190
1967251N29283 1967 93 NA NA DORIA 1967-09-17 09:00:00 TS 35.1500 -76.2799 main 21 0 P_____________ AL141967 35.1500 -76.2799 TS 32 -1 9 185
1967251N29283 1967 93 NA NA DORIA 1967-09-17 12:00:00 TS 34.7000 -76.3000 30 1006 hurdat_atl main 18 18 O_____________ hurdat_atl AL141967 34.7000 -76.3000 TD 30 1006 -1 9 179
1967251N29283 1967 93 NA NA DORIA 1967-09-17 15:00:00 TS 34.2350 -76.2724 main 58 58 P_____________ AL141967 34.2350 -76.2724 TD 30 1006 -1 9 175
1967251N29283 1967 93 NA NA DORIA 1967-09-17 18:00:00 TS 33.8000 -76.2000 30 hurdat_atl main 104 104 I_____________ hurdat_atl AL141967 33.8000 -76.2000 TD 30 1006 -1 8 171
1967251N29283 1967 93 NA NA DORIA 1967-09-17 21:00:00 TS 33.4350 -76.1227 main 149 149 P_____________ AL141967 33.4350 -76.1227 TD 30 1006 -1 7 167
1967251N29283 1967 93 NA NA DORIA 1967-09-18 00:00:00 TS 33.1000 -76.0000 30 1006 hurdat_atl main 184 184 O_____________ hurdat_atl AL141967 33.1000 -76.0000 TD 30 1006 -1 7 161
1967251N29283 1967 93 NA NA DORIA 1967-09-18 03:00:00 TS 32.7349 -75.8300 main 232 232 P_____________ AL141967 32.7349 -75.8300 TD 30 1006 -1 8 154
1967251N29283 1967 93 NA NA DORIA 1967-09-18 06:00:00 TS 32.4000 -75.6000 30 hurdat_atl main 269 269 I_____________ hurdat_atl AL141967 32.4000 -75.6000 TD 30 1006 -1 8 144
1967251N29283 1967 93 NA NA DORIA 1967-09-18 09:00:00 TS 32.1276 -75.3075 main 310 310 P_____________ AL141967 32.1276 -75.3075 TD 27 1006 -1 7 135
1967251N29283 1967 93 NA NA DORIA 1967-09-18 12:00:00 TS 31.9000 -75.0000 25 1006 hurdat_atl main 341 341 O_____________ hurdat_atl AL141967 31.9000 -75.0000 TD 25 1006 -1 6 132
1967251N29283 1967 93 NA NA DORIA 1967-09-18 15:00:00 TS 31.6999 -74.7428 main 373 373 P_____________ AL141967 31.6999 -74.7428 TD 25 1006 -1 6 133
1967251N29283 1967 93 NA NA DORIA 1967-09-18 18:00:00 TS 31.5000 -74.5000 25 1006 hurdat_atl main 402 402 O_____________ hurdat_atl AL141967 31.5000 -74.5000 TD 25 1006 -1 6 137
1967251N29283 1967 93 NA NA DORIA 1967-09-18 21:00:00 TS 31.2574 -74.2576 main 430 430 P_____________ AL141967 31.2574 -74.2576 TD 25 -1 7 139
1967251N29283 1967 93 NA NA DORIA 1967-09-19 00:00:00 TS 31.0000 -74.0000 25 hurdat_atl main 473 473 O_____________ hurdat_atl AL141967 31.0000 -74.0000 TD 25 -1 7 136
1967251N29283 1967 93 NA NA DORIA 1967-09-19 03:00:00 TS 30.7501 -73.6925 main 507 507 P_____________ AL141967 30.7501 -73.6925 TD 25 -1 7 134
1967251N29283 1967 93 NA NA DORIA 1967-09-19 06:00:00 TS 30.5000 -73.4000 25 hurdat_atl main 550 550 O_____________ hurdat_atl AL141967 30.5000 -73.4000 TD 25 -1 7 141
1967251N29283 1967 93 NA NA DORIA 1967-09-19 09:00:00 TS 30.2423 -73.2078 main 589 589 P_____________ AL141967 30.2423 -73.2078 TD 25 -1 6 145
1967251N29283 1967 93 NA NA DORIA 1967-09-19 12:00:00 TS 30.0000 -73.0000 25 hurdat_atl main 618 618 O_____________ hurdat_atl AL141967 30.0000 -73.0000 TD 25 -1 7 136
1967251N29283 1967 93 NA NA DORIA 1967-09-19 15:00:00 TS 29.7700 -72.6798 main 652 652 P_____________ AL141967 29.7700 -72.6798 TD 25 -1 7 123
1967251N29283 1967 93 NA NA DORIA 1967-09-19 18:00:00 TS 29.6000 -72.3000 25 hurdat_atl main 692 692 O_____________ hurdat_atl AL141967 29.6000 -72.3000 TD 25 -1 7 110
1967251N29283 1967 93 NA NA DORIA 1967-09-19 21:00:00 TS 29.5200 -71.9002 main 723 723 P_____________ AL141967 29.5200 -71.9002 TD 25 -1 7 98
1967251N29283 1967 93 NA NA DORIA 1967-09-20 00:00:00 TS 29.5000 -71.5000 25 1010 hurdat_atl main 746 746 O_____________ hurdat_atl AL141967 29.5000 -71.5000 TD 25 1010 -1 7 92
1967251N29283 1967 93 NA NA DORIA 1967-09-20 03:00:00 TS 29.4923 -71.1501 main 764 764 P_____________ AL141967 29.4923 -71.1501 TD 25 -1 6 90
1967251N29283 1967 93 NA NA DORIA 1967-09-20 06:00:00 TS 29.5000 -70.8000 25 hurdat_atl main 789 789 O_____________ hurdat_atl AL141967 29.5000 -70.8000 TD 25 -1 7 89
1967251N29283 1967 93 NA NA DORIA 1967-09-20 09:00:00 TS 29.5000 -70.4000 main 815 815 P_____________ AL141967 29.5000 -70.4000 TD 25 -1 7 90
1967251N29283 1967 93 NA NA DORIA 1967-09-20 12:00:00 TS 29.5000 -70.0000 25 hurdat_atl main 842 842 O_____________ hurdat_atl AL141967 29.5000 -70.0000 TD 25 -1 7 90
1967251N29283 1967 93 NA NA DORIA 1967-09-20 15:00:00 TS 29.4998 -69.6500 main 869 862 P_____________ AL141967 29.4998 -69.6500 TD 25 -1 6 90
1967251N29283 1967 93 NA NA DORIA 1967-09-20 18:00:00 TS 29.5000 -69.3000 25 hurdat_atl main 891 891 O_____________ hurdat_atl AL141967 29.5000 -69.3000 TD 25 -1 7 90
1967251N29283 1967 93 NA NA DORIA 1967-09-20 21:00:00 TS 29.5001 -68.8925 main 919 919 P_____________ AL141967 29.5001 -68.8925 TD 25 -1 7 90
1967251N29283 1967 93 NA NA DORIA 1967-09-21 00:00:00 TS 29.5000 -68.5000 25 hurdat_atl main 947 947 O_____________ hurdat_atl AL141967 29.5000 -68.5000 TD 25 -1 6 90
1967251N29283 1967 93 NA NA DORIA 1967-09-21 03:00:00 TS 29.4999 -68.1700 main 969 969 P_____________ AL141967 29.4999 -68.1700 TD 25 -1 5 90
1967251N29283 1967 93 NA NA DORIA 1967-09-21 06:00:00 TS 29.5000 -67.9000 25 hurdat_atl main 991 991 O_____________ hurdat_atl AL141967 29.5000 -67.9000 TD 25 -1 4 90
1967251N29283 1967 93 NA NA DORIA 1967-09-21 09:00:00 TS 29.5000 -67.6850 main 1006 1006 P_____________ AL141967 29.5000 -67.6850 TD 25 -1 3 90
1967251N29283 1967 93 NA NA DORIA 1967-09-21 12:00:00 TS 29.5000 -67.5000 25 hurdat_atl main 1021 O_____________ hurdat_atl AL141967 29.5000 -67.5000 TD 25 -1 3 90

About IBTrACS Database

This database is a web-friendly format of International Best Track Archive for Climate Stewardship (IBTrACS), a global best track data archive curated by NOAA dating back to 1842.

Updated: 2021-10-08